Bedford, IN

7:12 PM EDT on October 01, 2016 (GMT -0400)
APRSWXNET | | Change Station

Elev 685 ft 38.86 °N, 86.48 °W | Updated 33 minutes ago

Clear
Clear
67 °F
Feels Like 67 °F
N
0
Wind Variable Wind from ESE
Gusts 0.0 mph

Today
High -- | Low -- °F
--% Chance of Precip.
Yesterday
High -- | Low -- °F
Precip. -- in
Pressure 29.99 in
Visibility 10.0 miles
Clouds Clear
Dew Point 64 °F
Humidity 91%
Rainfall in
Snow Depth Not available.
7:42 AM 7:27 PM
New Moon, 1% visible
METAR KBMG 012253Z 17003KT 10SM CLR 18/14 A3000 RMK AO2 SLP156 T01780139
Pressure 29.99 in
Visibility 10.0 miles
Clouds Clear
Dew Point 64 °F
Humidity 91%
Rainfall in
Snow Depth Not available.
7:42 AM 7:27 PM
New Moon, 1% visible
METAR KBMG 012253Z 17003KT 10SM CLR 18/14 A3000 RMK AO2 SLP156 T01780139

10-Day Weather Forecast

Almanac

Astronomy

Oct. 01, 2016 Rise Set
Actual Time
Civil Twilight
Nautical Twilight
Astronomical Twilight
Moon
Length of Visible Light
Length of Day
Tomorrow will be .
, % of the Moon is Illuminated

Today's Extremes

State Highs State Lows

Community

WunderPhotos

Upload Photos

1,943,048 photos uploaded!

WunderBlog® & News

Nearby

Air Quality

  Air Quality AQ Index Pollutant
Not available.

Snow Depth

Station Depth Elevation

Earthquake Activity

City Distance Mag. Time & Date
Minimum magnitude displayed is 2.5.

Coastal Water Temperatures

Place Temperature

Stations

Nearby Weather Stations

Station Location Temp. Windchill Dew Point Humidity Wind Precip. Elev Updated Type
                   

Watches & Warnings

There are currently no watches in effect.